Time,TemperatureF,DewpointF,PressureIn,WindDirection,WindDirectionDegrees,WindSpeedMPH,WindSpeedGustMPH,Humidity,HourlyPrecipIn,Conditions,Clouds,dailyrainin,SoftwareType,DateUTC
2013-01-14 00:01:00,43.6,43.6,29.92,WSW,250,0.6,2.3,100,0.00,,,0.00,WeatherDisplay:10.37,2013-01-14 05:01:00,
2013-01-14 00:04:00,43.5,43.5,29.93,WSW,250,1.3,3.5,100,0.00,,,0.00,WeatherDisplay:10.37,2013-01-14 05:04:00,
2013-01-14 00:09:00,43.5,43.5,29.93,South,186,1.6,3.5,100,0.00,,,0.00,WeatherDisplay:10.37,2013-01-14 05:09:00,
2013-01-14 00:14:00,43.5,43.5,29.94,South,186,0.1,1.1,100,0.00,,,0.00,WeatherDisplay:10.37,2013-01-14 05:14:00,
2013-01-14 00:19:00,43.5,43.5,29.94,South,186,0.1,1.1,100,0.00,,,0.00,WeatherDisplay:10.37,2013-01-14 05:19:00,
2013-01-14 00:24:00,43.5,43.5,29.94,South,186,0.0,0.0,100,0.00,,,0.00,WeatherDisplay:10.37,2013-01-14 05:24:00,
2013-01-14 00:29:00,43.5,43.5,29.94,South,186,0.2,1.0,100,0.00,,,0.00,WeatherDisplay:10.37,2013-01-14 05:29:00,
2013-01-14 00:34:00,43.5,43.5,29.94,South,186,0.0,0.0,100,0.00,,,0.00,WeatherDisplay:10.37,2013-01-14 05:34:00,
2013-01-14 00:40:00,43.3,43.3,29.94,South,186,0.0,0.0,100,0.00,,,0.00,WeatherDisplay:10.37,2013-01-14 05:40:00,
2013-01-14 00:45:00,43.3,43.3,29.94,South,186,0.2,1.1,100,0.00,,,0.00,WeatherDisplay:10.37,2013-01-14 05:45:00,
2013-01-14 00:50:00,43.3,43.3,29.94,South,186,0.0,2.3,100,0.00,,,0.00,WeatherDisplay:10.37,2013-01-14 05:50:00,
2013-01-14 00:55:00,43.3,43.3,29.94,SW,218,1.1,3.0,100,0.00,,,0.00,WeatherDisplay:10.37,2013-01-14 05:55:00,
2013-01-14 01:00:00,43.5,43.5,29.94,SW,218,0.0,1.1,100,0.00,,,0.00,WeatherDisplay:10.37,2013-01-14 06:00:00,
2013-01-14 01:06:00,43.5,43.5,29.94,SW,214,0.3,2.3,100,0.00,,,0.00,WeatherDisplay:10.37,2013-01-14 06:06:00,
2013-01-14 01:11:00,43.5,43.5,29.94,SW,214,0.0,0.0,100,0.00,,,0.00,WeatherDisplay:10.37,2013-01-14 06:11:00,
2013-01-14 01:16:00,43.5,43.5,29.93,SW,214,0.0,0.0,100,0.00,,,0.00,WeatherDisplay:10.37,2013-01-14 06:16:00,
2013-01-14 01:22:00,43.3,43.3,29.94,SW,214,0.2,1.0,100,0.00,,,0.00,WeatherDisplay:10.37,2013-01-14 06:22:00,
2013-01-14 01:27:00,43.3,43.3,29.93,SW,214,0.0,0.0,100,0.00,,,0.00,WeatherDisplay:10.37,2013-01-14 06:27:00,
2013-01-14 01:32:00,43.3,43.3,29.93,SW,214,0.0,1.1,100,0.00,,,0.00,WeatherDisplay:10.37,2013-01-14 06:32:00,
2013-01-14 01:37:00,43.3,43.3,29.93,SW,214,0.0,0.0,100,0.00,,,0.00,WeatherDisplay:10.37,2013-01-14 06:37:00,
2013-01-14 01:42:00,43.3,43.3,29.93,SW,214,0.0,0.0,100,0.00,,,0.00,WeatherDisplay:10.37,2013-01-14 06:42:00,
2013-01-14 01:47:00,43.3,43.3,29.94,SW,214,0.0,0.0,100,0.00,,,0.00,WeatherDisplay:10.37,2013-01-14 06:47:00,
2013-01-14 01:53:00,43.3,43.3,29.95,SW,214,0.0,0.0,100,0.00,,,0.00,WeatherDisplay:10.37,2013-01-14 06:53:00,
2013-01-14 01:58:00,43.3,43.3,29.95,SW,214,0.0,0.0,100,0.00,,,0.00,WeatherDisplay:10.37,2013-01-14 06:58:00,
2013-01-14 02:03:00,43.3,43.3,29.95,SW,214,0.0,0.0,100,0.00,,,0.00,WeatherDisplay:10.37,2013-01-14 07:03:00,
2013-01-14 02:08:00,43.3,43.3,29.94,SW,214,0.0,1.1,100,0.00,,,0.00,WeatherDisplay:10.37,2013-01-14 07:08:00,
2013-01-14 02:13:00,43.5,43.5,29.94,SW,214,0.0,0.0,100,0.00,,,0.00,WeatherDisplay:10.37,2013-01-14 07:13:00,
2013-01-14 02:19:00,43.2,43.2,29.94,SW,214,0.0,0.0,100,0.00,,,0.00,WeatherDisplay:10.37,2013-01-14 07:19:00,
2013-01-14 02:24:00,43.1,43.1,29.95,SW,214,0.0,0.0,100,0.00,,,0.00,WeatherDisplay:10.37,2013-01-14 07:24:00,
2013-01-14 02:29:00,43.1,43.1,29.94,SSW,192,0.3,2.3,100,0.00,,,0.00,WeatherDisplay:10.37,2013-01-14 07:29:00,
2013-01-14 02:34:00,43.3,43.3,29.94,SE,141,0.0,0.0,100,0.00,,,0.00,WeatherDisplay:10.37,2013-01-14 07:34:00,
2013-01-14 02:40:00,43.3,43.3,29.94,SSE,148,0.2,1.1,100,0.00,,,0.00,WeatherDisplay:10.37,2013-01-14 07:40:00,
2013-01-14 02:45:00,43.5,43.5,29.94,SW,232,0.1,1.1,100,0.00,,,0.00,WeatherDisplay:10.37,2013-01-14 07:45:00,
2013-01-14 02:50:00,43.5,43.5,29.94,SW,232,0.0,0.0,100,0.00,,,0.00,WeatherDisplay:10.37,2013-01-14 07:50:00,
2013-01-14 02:56:00,43.5,43.5,29.93,West,275,0.0,0.0,100,0.00,,,0.00,WeatherDisplay:10.37,2013-01-14 07:56:00,
2013-01-14 03:01:00,43.6,43.6,29.93,West,275,0.4,2.3,100,0.00,,,0.00,WeatherDisplay:10.37,2013-01-14 08:01:00,
2013-01-14 03:06:00,43.3,43.3,29.94,West,275,0.0,0.0,100,0.00,,,0.00,WeatherDisplay:10.37,2013-01-14 08:06:00,
2013-01-14 03:12:00,43.2,43.2,29.95,SW,233,0.5,1.1,100,0.00,,,0.00,WeatherDisplay:10.37,2013-01-14 08:12:00,
2013-01-14 03:17:00,43.2,43.2,29.94,SW,233,0.0,0.0,100,0.00,,,0.00,WeatherDisplay:10.37,2013-01-14 08:17:00,
2013-01-14 03:22:00,43.3,43.3,29.94,SW,233,0.0,1.1,100,0.00,,,0.00,WeatherDisplay:10.37,2013-01-14 08:22:00,
2013-01-14 03:27:00,43.6,43.6,29.94,SW,233,0.1,0.0,100,0.00,,,0.00,WeatherDisplay:10.37,2013-01-14 08:27:00,
2013-01-14 03:32:00,43.6,43.6,29.94,SW,233,0.0,1.1,100,0.00,,,0.00,WeatherDisplay:10.37,2013-01-14 08:32:00,
2013-01-14 03:37:00,43.9,43.9,29.94,SW,233,0.1,0.0,100,0.00,,,0.00,WeatherDisplay:10.37,2013-01-14 08:37:00,
2013-01-14 03:42:00,44.2,44.2,29.94,SW,233,0.0,0.0,100,0.00,,,0.00,WeatherDisplay:10.37,2013-01-14 08:42:00,
2013-01-14 03:48:00,44.5,44.5,29.94,SW,216,1.6,2.3,100,0.00,,,0.00,WeatherDisplay:10.37,2013-01-14 08:48:00,
2013-01-14 03:53:00,44.5,44.5,29.93,SW,216,0.1,0.0,100,0.00,,,0.00,WeatherDisplay:10.37,2013-01-14 08:53:00,
2013-01-14 03:58:00,44.6,44.6,29.93,SW,216,0.0,0.0,100,0.00,,,0.00,WeatherDisplay:10.37,2013-01-14 08:58:00,
2013-01-14 04:04:00,44.6,44.6,29.93,SW,215,0.5,2.3,100,0.00,,,0.00,WeatherDisplay:10.37,2013-01-14 09:04:00,
2013-01-14 04:09:00,44.6,44.6,29.93,SW,215,0.0,1.1,100,0.00,,,0.00,WeatherDisplay:10.37,2013-01-14 09:09:00,
2013-01-14 04:14:00,44.6,44.6,29.92,South,179,1.4,2.3,100,0.00,,,0.00,WeatherDisplay:10.37,2013-01-14 09:14:00,
2013-01-14 04:19:00,44.8,44.8,29.92,South,179,0.7,2.3,100,0.00,,,0.00,WeatherDisplay:10.37,2013-01-14 09:19:00,
2013-01-14 04:25:00,44.9,44.9,29.92,South,179,0.3,2.0,100,0.00,,,0.00,WeatherDisplay:10.37,2013-01-14 09:25:00,
2013-01-14 04:30:00,44.8,44.8,29.92,SSW,199,0.1,1.0,100,0.00,,,0.00,WeatherDisplay:10.37,2013-01-14 09:30:00,
2013-01-14 04:35:00,44.6,44.6,29.92,SSW,199,0.0,0.0,100,0.00,,,0.00,WeatherDisplay:10.37,2013-01-14 09:35:00,
2013-01-14 04:40:00,44.5,44.5,29.92,SSW,199,0.0,0.0,100,0.00,,,0.00,WeatherDisplay:10.37,2013-01-14 09:40:00,
2013-01-14 04:45:00,44.3,44.3,29.92,SSW,199,0.0,0.0,100,0.00,,,0.00,WeatherDisplay:10.37,2013-01-14 09:45:00,
2013-01-14 04:50:00,44.2,44.2,29.92,SSW,199,0.0,0.0,100,0.00,,,0.00,WeatherDisplay:10.37,2013-01-14 09:50:00,
2013-01-14 04:55:00,44.2,44.2,29.92,SSW,199,0.0,0.0,100,0.00,,,0.00,WeatherDisplay:10.37,2013-01-14 09:55:00,
2013-01-14 05:01:00,44.2,44.2,29.91,SSW,199,0.0,0.0,100,0.01,RA,,0.01,WeatherDisplay:10.37,2013-01-14 10:01:00,
2013-01-14 05:06:00,44.2,44.2,29.91,SSW,199,0.0,0.0,100,0.01,RA,,0.01,WeatherDisplay:10.37,2013-01-14 10:06:00,
2013-01-14 05:11:00,44.2,44.2,29.91,SSW,199,0.0,0.0,100,0.01,,,0.01,WeatherDisplay:10.37,2013-01-14 10:11:00,
2013-01-14 05:16:00,44.2,44.2,29.89,SSW,199,0.0,0.0,100,0.01,,,0.01,WeatherDisplay:10.37,2013-01-14 10:16:00,
2013-01-14 05:21:00,44.1,44.1,29.90,NE,42,1.1,3.5,100,0.02,RA,,0.02,WeatherDisplay:10.37,2013-01-14 10:21:00,
2013-01-14 05:26:00,44.1,44.1,29.89,ESE,102,0.0,2.3,100,0.02,RA,,0.02,WeatherDisplay:10.37,2013-01-14 10:26:00,
2013-01-14 05:31:00,43.8,43.8,29.87,ESE,102,0.0,0.0,100,0.02,CLR,,0.02,WeatherDisplay:10.37,2013-01-14 10:31:00,
2013-01-14 05:37:00,44.2,44.2,29.83,SSE,163,2.1,6.9,100,0.02,CLR,,0.02,WeatherDisplay:10.37,2013-01-14 10:37:00,
2013-01-14 05:42:00,44.8,44.8,29.86,WSW,242,1.7,3.5,100,0.02,CLR,,0.02,WeatherDisplay:10.37,2013-01-14 10:42:00,
2013-01-14 05:47:00,45.2,45.2,29.84,SSW,192,1.2,1.2,100,0.02,CLR,,0.02,WeatherDisplay:10.37,2013-01-14 10:47:00,
2013-01-14 05:52:00,45.7,45.7,29.85,NNW,331,2.0,3.5,100,0.02,CLR,,0.02,WeatherDisplay:10.37,2013-01-14 10:52:00,
2013-01-14 05:57:00,45.7,45.7,29.86,NW,319,2.9,3.5,100,0.02,CLR,,0.02,WeatherDisplay:10.37,2013-01-14 10:57:00,
2013-01-14 06:03:00,45.7,45.7,29.85,SW,236,1.3,3.5,100,0.01,CLR,,0.02,WeatherDisplay:10.37,2013-01-14 11:03:00,
2013-01-14 06:08:00,45.4,45.4,29.89,WNW,294,0.1,1.1,100,0.01,CLR,,0.02,WeatherDisplay:10.37,2013-01-14 11:08:00,
2013-01-14 06:13:00,45.2,45.2,29.89,SSW,194,0.9,0.0,100,0.01,CLR,,0.02,WeatherDisplay:10.37,2013-01-14 11:13:00,
2013-01-14 06:18:00,45.2,45.2,29.90,SE,138,0.0,1.1,100,0.00,,,0.02,WeatherDisplay:10.37,2013-01-14 11:18:00,
2013-01-14 06:24:00,45.7,45.7,29.89,SSW,195,1.4,3.5,100,0.00,,,0.02,WeatherDisplay:10.37,2013-01-14 11:24:00,
2013-01-14 06:29:00,46.2,46.2,29.88,SE,133,0.8,1.1,100,0.00,,,0.02,WeatherDisplay:10.37,2013-01-14 11:29:00,
2013-01-14 06:34:00,46.7,46.7,29.91,WNW,289,3.8,8.1,100,0.01,RA,,0.03,WeatherDisplay:10.37,2013-01-14 11:34:00,
2013-01-14 06:39:00,46.7,46.7,29.92,WSW,252,1.1,3.5,100,0.01,RA,,0.03,WeatherDisplay:10.37,2013-01-14 11:39:00,
2013-01-14 06:44:00,46.8,46.8,29.91,South,185,0.8,4.6,100,0.01,CLR,,0.03,WeatherDisplay:10.37,2013-01-14 11:44:00,
2013-01-14 06:50:00,46.8,46.8,29.92,South,185,0.4,2.3,100,0.01,CLR,,0.03,WeatherDisplay:10.37,2013-01-14 11:50:00,
2013-01-14 06:55:00,46.8,46.8,29.92,South,185,0.3,1.1,100,0.01,CLR,,0.03,WeatherDisplay:10.37,2013-01-14 11:55:00,
2013-01-14 07:00:00,47.0,47.0,29.91,South,170,4.0,6.0,100,0.01,CLR,,0.03,WeatherDisplay:10.37,2013-01-14 12:00:00,
2013-01-14 07:05:00,47.1,47.1,29.91,SSE,167,0.0,1.1,100,0.01,,,0.03,WeatherDisplay:10.37,2013-01-14 12:05:00,
2013-01-14 07:10:00,47.3,47.3,29.92,SW,217,0.0,1.1,100,0.01,,,0.03,WeatherDisplay:10.37,2013-01-14 12:10:00,
2013-01-14 07:15:00,47.6,47.6,29.92,SW,221,1.9,2.3,100,0.01,,,0.03,WeatherDisplay:10.37,2013-01-14 12:15:00,
2013-01-14 07:21:00,47.7,47.7,29.92,SW,223,2.8,4.6,100,0.01,,,0.03,WeatherDisplay:10.37,2013-01-14 12:21:00,
2013-01-14 07:26:00,47.9,47.9,29.92,SW,227,1.6,4.6,100,0.01,,,0.03,WeatherDisplay:10.37,2013-01-14 12:26:00,
2013-01-14 07:31:00,47.7,47.7,29.92,SW,227,0.1,1.1,100,0.01,,,0.03,WeatherDisplay:10.37,2013-01-14 12:31:00,
2013-01-14 07:36:00,47.6,47.6,29.93,SW,225,2.0,3.5,100,0.00,CLR,,0.03,WeatherDisplay:10.37,2013-01-14 12:36:00,
2013-01-14 07:41:00,47.6,47.6,29.93,South,180,1.1,3.5,100,0.00,CLR,,0.03,WeatherDisplay:10.37,2013-01-14 12:41:00,
2013-01-14 07:46:00,47.6,47.6,29.93,WSW,248,0.4,1.1,100,0.00,CLR,,0.03,WeatherDisplay:10.37,2013-01-14 12:46:00,
2013-01-14 07:52:00,47.4,47.4,29.93,WSW,247,0.0,0.0,100,0.00,CLR,,0.03,WeatherDisplay:10.37,2013-01-14 12:52:00,
2013-01-14 07:57:00,47.4,47.4,29.94,SW,218,0.0,0.0,100,0.00,CLR,,0.03,WeatherDisplay:10.37,2013-01-14 12:57:00,
2013-01-14 08:02:00,47.3,47.3,29.94,SW,218,0.0,0.0,100,0.00,CLR,,0.03,WeatherDisplay:10.37,2013-01-14 13:02:00,
2013-01-14 08:07:00,47.3,47.3,29.95,SW,236,1.0,4.0,100,0.00,CLR,,0.03,WeatherDisplay:10.37,2013-01-14 13:07:00,
2013-01-14 08:12:00,47.3,47.3,29.96,WSW,238,0.7,1.0,100,0.00,CLR,,0.03,WeatherDisplay:10.37,2013-01-14 13:12:00,
2013-01-14 08:17:00,47.1,47.1,29.95,WSW,238,0.0,0.0,100,0.00,CLR,,0.03,WeatherDisplay:10.37,2013-01-14 13:17:00,
2013-01-14 08:22:00,47.0,47.0,29.96,SW,233,0.9,2.3,100,0.00,CLR,,0.03,WeatherDisplay:10.37,2013-01-14 13:22:00,
2013-01-14 08:28:00,47.0,47.0,29.96,SW,221,0.4,2.3,100,0.00,CLR,,0.03,WeatherDisplay:10.37,2013-01-14 13:28:00,
2013-01-14 08:33:00,47.0,47.0,29.96,SSW,207,0.3,2.3,100,0.00,CLR,,0.03,WeatherDisplay:10.37,2013-01-14 13:33:00,
2013-01-14 08:38:00,46.8,46.8,29.95,SW,233,0.0,1.0,100,0.00,CLR,,0.03,WeatherDisplay:10.37,2013-01-14 13:38:00,
2013-01-14 08:43:00,46.8,46.8,29.96,SW,233,0.1,1.1,100,0.00,CLR,,0.03,WeatherDisplay:10.37,2013-01-14 13:43:00,
2013-01-14 08:48:00,47.0,47.0,29.96,SW,227,1.0,2.3,100,0.00,CLR,,0.03,WeatherDisplay:10.37,2013-01-14 13:48:00,
2013-01-14 08:54:00,47.1,47.1,29.97,SW,227,0.0,0.0,100,0.00,CLR,,0.03,WeatherDisplay:10.37,2013-01-14 13:54:00,
2013-01-14 08:59:00,47.3,47.3,29.97,SW,227,0.3,2.3,100,0.00,CLR,,0.03,WeatherDisplay:10.37,2013-01-14 13:59:00,
2013-01-14 09:04:00,47.4,47.4,29.98,SW,227,0.3,1.1,100,0.00,CLR,,0.03,WeatherDisplay:10.37,2013-01-14 14:04:00,
2013-01-14 09:09:00,47.6,47.6,29.98,SW,227,0.0,0.0,100,0.00,CLR,,0.03,WeatherDisplay:10.37,2013-01-14 14:09:00,
2013-01-14 09:15:00,47.7,47.7,29.97,SW,227,0.0,0.0,100,0.00,CLR,,0.03,WeatherDisplay:10.37,2013-01-14 14:15:00,
2013-01-14 09:20:00,47.9,47.9,29.98,SW,227,0.0,0.0,100,0.00,CLR,,0.03,WeatherDisplay:10.37,2013-01-14 14:20:00,
2013-01-14 09:25:00,48.3,48.3,29.98,SW,227,0.2,1.1,100,0.00,CLR,,0.03,WeatherDisplay:10.37,2013-01-14 14:25:00,
2013-01-14 09:30:00,48.5,48.5,29.98,SW,227,0.0,1.1,100,0.00,CLR,,0.03,WeatherDisplay:10.37,2013-01-14 14:30:00,
2013-01-14 09:35:00,48.6,48.6,29.99,SW,227,0.0,0.0,100,0.00,CLR,,0.03,WeatherDisplay:10.37,2013-01-14 14:35:00,
2013-01-14 09:40:00,48.9,48.9,29.99,SSW,196,0.3,2.3,100,0.00,CLR,,0.03,WeatherDisplay:10.37,2013-01-14 14:40:00,
2013-01-14 09:46:00,49.1,49.1,29.99,SE,124,0.8,2.0,100,0.00,CLR,,0.03,WeatherDisplay:10.37,2013-01-14 14:46:00,
2013-01-14 09:51:00,49.2,49.2,30.00,SE,124,0.1,1.0,100,0.00,CLR,,0.03,WeatherDisplay:10.37,2013-01-14 14:51:00,
2013-01-14 09:56:00,49.2,49.2,30.00,SW,233,1.2,3.0,100,0.00,CLR,,0.03,WeatherDisplay:10.37,2013-01-14 14:56:00,
2013-01-14 10:11:00,49.2,49.2,30.00,WNW,300,0.0,1.1,100,0.00,CLR,,0.03,WeatherDisplay:10.37,2013-01-14 15:11:00,
2013-01-14 10:17:00,49.2,49.2,30.00,NE,50,3.7,6.9,100,0.00,CLR,,0.03,WeatherDisplay:10.37,2013-01-14 15:17:00,
2013-01-14 10:22:00,49.1,49.1,30.00,North,11,0.1,3.5,100,0.00,CLR,,0.03,WeatherDisplay:10.37,2013-01-14 15:22:00,
2013-01-14 10:28:00,49.1,49.1,30.00,North,355,0.0,1.1,100,0.00,CLR,,0.03,WeatherDisplay:10.37,2013-01-14 15:28:00,
2013-01-14 10:33:00,48.9,48.9,29.99,NW,314,0.4,2.3,100,0.00,CLR,,0.03,WeatherDisplay:10.37,2013-01-14 15:33:00,
2013-01-14 10:38:00,49.1,49.1,30.00,NW,314,0.6,2.3,100,0.00,CLR,,0.03,WeatherDisplay:10.37,2013-01-14 15:38:00,
2013-01-14 10:43:00,49.1,49.1,30.00,NW,314,0.0,0.0,100,0.00,CLR,,0.03,WeatherDisplay:10.37,2013-01-14 15:43:00,
2013-01-14 10:48:00,49.2,49.2,30.00,NW,313,0.3,1.0,100,0.00,CLR,,0.03,WeatherDisplay:10.37,2013-01-14 15:48:00,
2013-01-14 10:54:00,49.2,49.2,30.00,NW,313,0.0,0.0,100,0.00,CLR,,0.03,WeatherDisplay:10.37,2013-01-14 15:54:00,
2013-01-14 10:59:00,49.1,49.1,30.00,NW,313,0.0,0.0,100,0.00,CLR,,0.03,WeatherDisplay:10.37,2013-01-14 15:59:00,
2013-01-14 11:04:00,49.2,49.2,29.99,NW,314,0.1,1.0,100,0.00,CLR,,0.03,WeatherDisplay:10.37,2013-01-14 16:04:00,
2013-01-14 11:09:00,49.2,49.2,30.00,NW,313,0.5,2.0,100,0.00,CLR,,0.03,WeatherDisplay:10.37,2013-01-14 16:09:00,
2013-01-14 11:15:00,49.2,49.2,30.00,NW,314,0.0,1.1,100,0.00,CLR,,0.03,WeatherDisplay:10.37,2013-01-14 16:15:00,
2013-01-14 11:20:00,49.1,49.1,30.00,NNW,331,1.9,4.6,100,0.00,CLR,,0.03,WeatherDisplay:10.37,2013-01-14 16:20:00,
2013-01-14 11:25:00,48.9,48.9,30.00,NNE,13,0.0,1.1,100,0.00,CLR,,0.03,WeatherDisplay:10.37,2013-01-14 16:25:00,
2013-01-14 11:30:00,48.9,48.9,30.01,NNE,13,0.9,2.3,100,0.00,CLR,,0.03,WeatherDisplay:10.37,2013-01-14 16:30:00,
2013-01-14 11:35:00,49.1,49.1,30.01,NNW,329,0.2,2.3,100,0.00,CLR,,0.03,WeatherDisplay:10.37,2013-01-14 16:35:00,
2013-01-14 11:41:00,48.9,48.9,30.01,NNW,330,0.0,0.0,100,0.00,CLR,,0.03,WeatherDisplay:10.37,2013-01-14 16:41:00,
2013-01-14 11:46:00,49.1,49.1,30.01,NNW,330,0.0,0.0,100,0.00,CLR,,0.03,WeatherDisplay:10.37,2013-01-14 16:46:00,
2013-01-14 11:51:00,49.1,49.1,30.01,NNW,329,0.1,2.3,100,0.00,CLR,,0.03,WeatherDisplay:10.37,2013-01-14 16:51:00,
2013-01-14 11:56:00,49.2,49.2,30.01,NW,304,0.0,0.0,100,0.00,CLR,,0.03,WeatherDisplay:10.37,2013-01-14 16:56:00,
2013-01-14 12:01:00,49.4,49.4,30.02,NW,304,0.2,2.3,100,0.00,CLR,,0.03,WeatherDisplay:10.37,2013-01-14 17:01:00,
2013-01-14 12:07:00,49.4,49.4,30.02,WNW,301,0.3,1.1,100,0.00,CLR,,0.03,WeatherDisplay:10.37,2013-01-14 17:07:00,
2013-01-14 12:12:00,49.2,49.2,30.02,NW,322,0.3,0.0,100,0.00,CLR,,0.03,WeatherDisplay:10.37,2013-01-14 17:12:00,
2013-01-14 12:17:00,49.2,49.2,30.03,NE,36,0.0,2.3,100,0.00,CLR,,0.03,WeatherDisplay:10.37,2013-01-14 17:17:00,
2013-01-14 12:22:00,48.9,48.9,30.02,North,5,5.8,11.5,100,0.00,CLR,,0.03,WeatherDisplay:10.37,2013-01-14 17:22:00,
2013-01-14 12:27:00,48.8,48.8,30.02,North,360,3.5,5.0,100,0.00,CLR,,0.03,WeatherDisplay:10.37,2013-01-14 17:27:00,
2013-01-14 12:32:00,48.9,48.9,30.03,NNE,13,4.0,6.9,100,0.00,CLR,,0.03,WeatherDisplay:10.37,2013-01-14 17:32:00,
2013-01-14 12:38:00,48.9,48.9,30.02,NNW,346,8.4,11.5,100,0.00,CLR,,0.03,WeatherDisplay:10.37,2013-01-14 17:38:00,
2013-01-14 12:43:00,48.6,48.1,30.03,NNE,12,11.4,18.4,98,0.00,CLR,,0.03,WeatherDisplay:10.37,2013-01-14 17:43:00,
2013-01-14 12:48:00,48.3,46.9,30.03,NNE,25,9.1,18.4,95,0.00,CLR,,0.03,WeatherDisplay:10.37,2013-01-14 17:48:00,
2013-01-14 12:53:00,48.0,45.8,30.04,NNE,22,8.8,13.8,92,0.00,CLR,,0.03,WeatherDisplay:10.37,2013-01-14 17:53:00,
2013-01-14 12:59:00,48.2,45.4,30.05,North,355,3.8,5.8,90,0.00,CLR,,0.03,WeatherDisplay:10.37,2013-01-14 17:59:00,
2013-01-14 13:04:00,48.5,45.1,30.03,NW,325,3.9,12.7,88,0.00,CLR,,0.03,WeatherDisplay:10.37,2013-01-14 18:04:00,
2013-01-14 13:09:00,48.8,44.8,30.03,NNW,338,4.3,4.3,86,0.00,CLR,,0.03,WeatherDisplay:10.37,2013-01-14 18:09:00,
2013-01-14 13:14:00,48.8,43.9,30.04,NNE,15,3.6,8.1,83,0.00,CLR,,0.03,WeatherDisplay:10.37,2013-01-14 18:14:00,
2013-01-14 13:20:00,48.9,43.6,30.04,NE,38,7.0,11.5,82,0.00,CLR,,0.03,WeatherDisplay:10.37,2013-01-14 18:20:00,
2013-01-14 13:25:00,49.1,43.5,30.05,NNW,333,4.6,11.5,81,0.00,CLR,,0.03,WeatherDisplay:10.37,2013-01-14 18:25:00,
2013-01-14 13:30:00,49.1,42.9,30.05,North,360,6.6,10.4,79,0.00,CLR,,0.03,WeatherDisplay:10.37,2013-01-14 18:30:00,
2013-01-14 13:35:00,49.1,42.9,30.05,NNE,24,5.7,10.4,79,0.00,CLR,,0.03,WeatherDisplay:10.37,2013-01-14 18:35:00,
2013-01-14 13:40:00,48.9,42.3,30.05,North,9,4.9,8.1,78,0.00,CLR,,0.03,WeatherDisplay:10.37,2013-01-14 18:40:00,
2013-01-14 13:45:00,49.1,42.2,30.05,North,355,2.9,5.8,77,0.00,CLR,,0.03,WeatherDisplay:10.37,2013-01-14 18:45:00,
2013-01-14 13:51:00,48.9,41.7,30.05,North,360,6.4,11.5,76,0.00,CLR,,0.03,WeatherDisplay:10.37,2013-01-14 18:51:00,
2013-01-14 13:56:00,48.9,42.0,30.05,NNE,25,3.7,9.2,77,0.00,CLR,,0.03,WeatherDisplay:10.37,2013-01-14 18:56:00,
2013-01-14 14:01:00,49.2,42.0,30.05,North,5,6.1,11.5,76,0.00,CLR,,0.03,WeatherDisplay:10.37,2013-01-14 19:01:00,
2013-01-14 14:06:00,49.6,42.0,30.06,North,9,4.3,9.2,75,0.00,CLR,,0.03,WeatherDisplay:10.37,2013-01-14 19:06:00,
2013-01-14 14:11:00,49.8,41.8,30.05,NNW,339,2.8,4.6,74,0.00,CLR,,0.03,WeatherDisplay:10.37,2013-01-14 19:11:00,
2013-01-14 14:16:00,49.9,40.9,30.05,North,360,6.1,10.4,71,0.00,CLR,,0.03,WeatherDisplay:10.37,2013-01-14 19:16:00,
2013-01-14 14:22:00,49.6,40.6,30.06,NE,44,8.3,12.0,71,0.00,CLR,,0.03,WeatherDisplay:10.37,2013-01-14 19:22:00,
2013-01-14 14:27:00,49.1,39.7,30.06,NNE,23,4.6,11.5,70,0.00,CLR,,0.03,WeatherDisplay:10.37,2013-01-14 19:27:00,
2013-01-14 14:32:00,48.9,39.9,30.07,North,10,7.6,11.5,71,0.00,CLR,,0.03,WeatherDisplay:10.37,2013-01-14 19:32:00,
2013-01-14 14:37:00,48.8,40.2,30.08,NNE,18,3.1,5.8,72,0.00,CLR,,0.03,WeatherDisplay:10.37,2013-01-14 19:37:00,
2013-01-14 14:42:00,48.6,39.6,30.08,NNW,340,3.8,9.2,71,0.00,CLR,,0.03,WeatherDisplay:10.37,2013-01-14 19:42:00,
2013-01-14 14:47:00,48.8,39.8,30.09,NNW,337,5.3,6.0,71,0.00,CLR,,0.03,WeatherDisplay:10.37,2013-01-14 19:47:00,
2013-01-14 14:52:00,48.6,39.3,30.09,NNW,348,3.7,9.0,70,0.00,CLR,,0.03,WeatherDisplay:10.37,2013-01-14 19:52:00,
2013-01-14 14:57:00,48.3,39.3,30.08,NW,315,4.4,5.8,71,0.00,CLR,,0.03,WeatherDisplay:10.37,2013-01-14 19:57:00,
2013-01-14 15:03:00,47.9,38.6,30.09,North,360,7.5,12.7,70,0.00,CLR,,0.03,WeatherDisplay:10.37,2013-01-14 20:03:00,
2013-01-14 15:08:00,47.4,38.1,30.09,NE,45,6.8,12.7,70,0.00,CLR,,0.03,WeatherDisplay:10.37,2013-01-14 20:08:00,
2013-01-14 15:13:00,47.1,38.5,30.09,NNE,19,6.4,8.0,72,0.00,CLR,,0.03,WeatherDisplay:10.37,2013-01-14 20:13:00,
2013-01-14 15:18:00,46.8,37.9,30.10,NNE,29,5.9,12.7,71,0.00,CLR,,0.03,WeatherDisplay:10.37,2013-01-14 20:18:00,
2013-01-14 15:23:00,46.4,37.5,30.09,North,355,8.4,12.7,71,0.00,CLR,,0.03,WeatherDisplay:10.37,2013-01-14 20:23:00,
2013-01-14 15:29:00,46.0,37.1,30.09,NNE,24,6.6,10.4,71,0.00,CLR,,0.03,WeatherDisplay:10.37,2013-01-14 20:29:00,
2013-01-14 15:34:00,45.7,36.5,30.10,NNW,337,7.5,12.7,70,0.00,CLR,,0.03,WeatherDisplay:10.37,2013-01-14 20:34:00,
2013-01-14 15:39:00,45.4,36.2,30.09,ENE,62,6.8,11.5,70,0.00,CLR,,0.03,WeatherDisplay:10.37,2013-01-14 20:39:00,
2013-01-14 15:44:00,45.1,35.9,30.09,North,360,7.9,11.5,70,0.00,CLR,,0.03,WeatherDisplay:10.37,2013-01-14 20:44:00,
2013-01-14 15:49:00,44.8,35.6,30.09,North,5,3.9,13.8,70,0.00,CLR,,0.03,WeatherDisplay:10.37,2013-01-14 20:49:00,
2013-01-14 15:54:00,44.6,35.1,30.11,NNE,33,5.5,7.0,69,0.00,CLR,,0.03,WeatherDisplay:10.37,2013-01-14 20:54:00,
2013-01-14 15:59:00,44.3,34.8,30.11,NNE,15,5.0,10.4,69,0.00,CLR,,0.03,WeatherDisplay:10.37,2013-01-14 20:59:00,
2013-01-14 16:05:00,44.1,34.6,30.11,North,360,3.8,5.8,69,0.00,CLR,,0.03,WeatherDisplay:10.37,2013-01-14 21:05:00,
2013-01-14 16:10:00,43.8,34.3,30.11,NNE,29,5.4,11.5,69,0.00,CLR,,0.03,WeatherDisplay:10.37,2013-01-14 21:10:00,
2013-01-14 16:15:00,43.6,34.1,30.11,NNE,26,7.9,11.5,69,0.00,CLR,,0.03,WeatherDisplay:10.37,2013-01-14 21:15:00,
2013-01-14 16:20:00,43.3,34.2,30.11,NE,36,5.4,6.9,70,0.00,CLR,,0.03,WeatherDisplay:10.37,2013-01-14 21:20:00,
2013-01-14 16:26:00,43.2,34.1,30.12,NE,44,4.4,5.8,70,0.00,CLR,,0.03,WeatherDisplay:10.37,2013-01-14 21:26:00,
2013-01-14 16:31:00,42.9,33.4,30.12,NNE,30,6.7,10.4,69,0.00,CLR,,0.03,WeatherDisplay:10.37,2013-01-14 21:31:00,
2013-01-14 16:36:00,42.8,33.3,30.12,NE,42,3.5,5.0,69,0.00,CLR,,0.03,WeatherDisplay:10.37,2013-01-14 21:36:00,
2013-01-14 16:41:00,42.5,32.7,30.13,NNE,32,4.5,9.0,68,0.00,CLR,,0.03,WeatherDisplay:10.37,2013-01-14 21:41:00,
2013-01-14 16:46:00,42.3,32.5,30.12,NE,44,5.6,8.1,68,0.00,CLR,,0.03,WeatherDisplay:10.37,2013-01-14 21:46:00,
2013-01-14 16:52:00,42.2,32.4,30.12,NE,49,5.2,6.9,68,0.00,CLR,,0.03,WeatherDisplay:10.37,2013-01-14 21:52:00,
2013-01-14 16:57:00,41.9,32.1,30.12,NNE,26,4.6,13.0,68,0.00,CLR,,0.03,WeatherDisplay:10.37,2013-01-14 21:57:00,
2013-01-14 17:02:00,41.6,31.4,30.11,NNE,15,4.7,5.8,67,0.00,CLR,,0.03,WeatherDisplay:10.37,2013-01-14 22:02:00,
2013-01-14 17:07:00,41.5,31.7,30.11,NNE,22,3.9,5.8,68,0.00,CLR,,0.03,WeatherDisplay:10.37,2013-01-14 22:07:00,
2013-01-14 17:12:00,41.2,31.1,30.13,NNE,17,4.7,10.4,67,0.00,CLR,,0.03,WeatherDisplay:10.37,2013-01-14 22:12:00,
2013-01-14 17:18:00,41.1,31.0,30.11,North,5,5.2,9.2,67,0.00,CLR,,0.03,WeatherDisplay:10.37,2013-01-14 22:18:00,
2013-01-14 17:23:00,40.8,30.7,30.11,NNW,348,5.2,8.1,67,0.00,CLR,,0.03,WeatherDisplay:10.37,2013-01-14 22:23:00,
2013-01-14 17:28:00,40.6,30.9,30.13,NNE,29,4.5,7.0,68,0.00,CLR,,0.03,WeatherDisplay:10.37,2013-01-14 22:28:00,
2013-01-14 17:33:00,40.5,30.8,30.13,NNE,25,4.2,5.0,68,0.00,CLR,,0.03,WeatherDisplay:10.37,2013-01-14 22:33:00,
2013-01-14 17:38:00,40.3,30.9,30.12,NNE,22,4.4,5.8,69,0.00,CLR,,0.03,WeatherDisplay:10.37,2013-01-14 22:38:00,
2013-01-14 17:43:00,40.1,30.4,30.13,NNE,15,4.7,8.1,68,0.00,CLR,,0.03,WeatherDisplay:10.37,2013-01-14 22:43:00,
2013-01-14 17:48:00,39.9,30.5,30.12,NNE,24,5.7,10.4,69,0.00,CLR,,0.03,WeatherDisplay:10.37,2013-01-14 22:48:00,
2013-01-14 17:53:00,39.6,30.3,30.13,NNE,31,5.0,6.0,69,0.00,CLR,,0.03,WeatherDisplay:10.37,2013-01-14 22:53:00,
2013-01-14 17:58:00,39.5,30.2,30.13,NNE,18,3.4,3.5,69,0.00,CLR,,0.03,WeatherDisplay:10.37,2013-01-14 22:58:00,
2013-01-14 18:03:00,39.5,30.2,30.13,NNE,28,3.7,9.2,69,0.00,CLR,,0.03,WeatherDisplay:10.37,2013-01-14 23:03:00,
2013-01-14 18:09:00,39.3,30.0,30.12,NNE,27,8.8,13.8,69,0.00,CLR,,0.03,WeatherDisplay:10.37,2013-01-14 23:09:00,
2013-01-14 18:14:00,39.2,29.9,30.13,NNE,29,6.6,11.5,69,0.00,CLR,,0.03,WeatherDisplay:10.37,2013-01-14 23:14:00,
2013-01-14 18:19:00,39.1,29.4,30.14,NE,44,5.7,12.7,68,0.00,CLR,,0.03,WeatherDisplay:10.37,2013-01-14 23:19:00,
2013-01-14 18:24:00,38.9,29.2,30.15,NE,44,4.2,11.5,68,0.00,CLR,,0.03,WeatherDisplay:10.37,2013-01-14 23:24:00,
2013-01-14 18:29:00,38.8,29.1,30.15,North,360,9.2,11.5,68,0.00,CLR,,0.03,WeatherDisplay:10.37,2013-01-14 23:29:00,
2013-01-14 18:35:00,38.6,28.9,30.14,NNE,14,3.2,11.5,68,0.00,CLR,,0.03,WeatherDisplay:10.37,2013-01-14 23:35:00,
2013-01-14 18:40:00,38.5,28.9,30.14,NNE,12,9.9,15.0,68,0.00,CLR,,0.03,WeatherDisplay:10.37,2013-01-14 23:40:00,
2013-01-14 18:45:00,38.3,28.7,30.16,North,5,10.4,15.0,68,0.00,CLR,,0.03,WeatherDisplay:10.37,2013-01-14 23:45:00,
2013-01-14 18:50:00,38.3,28.3,30.16,NE,35,7.5,11.5,67,0.00,CLR,,0.03,WeatherDisplay:10.37,2013-01-14 23:50:00,
2013-01-14 18:55:00,38.2,28.2,30.18,North,5,2.3,9.2,67,0.00,CLR,,0.03,WeatherDisplay:10.37,2013-01-14 23:55:00,
2013-01-14 19:00:00,38.2,28.6,30.17,NNE,17,5.5,6.9,68,0.00,CLR,,0.03,WeatherDisplay:10.37,2013-01-15 00:00:00,
2013-01-14 19:05:00,38.0,28.0,30.16,North,355,9.0,11.5,67,0.00,CLR,,0.03,WeatherDisplay:10.37,2013-01-15 00:05:00,
2013-01-14 19:11:00,38.0,28.0,30.18,NNE,15,6.5,11.0,67,0.00,CLR,,0.03,WeatherDisplay:10.37,2013-01-15 00:11:00,
2013-01-14 19:16:00,37.9,27.5,30.18,NNW,337,6.2,11.5,66,0.00,CLR,,0.03,WeatherDisplay:10.37,2013-01-15 00:16:00,
2013-01-14 19:21:00,37.8,27.8,30.19,North,360,6.9,11.5,67,0.00,CLR,,0.03,WeatherDisplay:10.37,2013-01-15 00:21:00,
2013-01-14 19:26:00,37.8,27.8,30.19,North,355,7.7,11.5,67,0.00,CLR,,0.03,WeatherDisplay:10.37,2013-01-15 00:26:00,
2013-01-14 19:31:00,37.6,28.0,30.20,North,9,6.2,11.5,68,0.00,CLR,,0.03,WeatherDisplay:10.37,2013-01-15 00:31:00,
2013-01-14 19:36:00,37.5,27.5,30.20,NE,42,5.5,12.7,67,0.00,CLR,,0.03,WeatherDisplay:10.37,2013-01-15 00:36:00,
2013-01-14 19:42:00,37.3,27.3,30.19,North,5,7.6,12.7,67,0.00,CLR,,0.03,WeatherDisplay:10.37,2013-01-15 00:42:00,
2013-01-14 19:47:00,37.3,27.3,30.21,NNE,16,5.2,9.2,67,0.00,CLR,,0.03,WeatherDisplay:10.37,2013-01-15 00:47:00,
2013-01-14 19:52:00,37.2,27.2,30.21,NNE,20,7.4,11.5,67,0.00,CLR,,0.03,WeatherDisplay:10.37,2013-01-15 00:52:00,
2013-01-14 19:57:00,37.0,27.1,30.21,NNE,28,4.9,9.2,67,0.00,CLR,,0.03,WeatherDisplay:10.37,2013-01-15 00:57:00,
2013-01-14 20:02:00,36.9,27.0,30.21,NNW,340,4.6,8.1,67,0.00,CLR,,0.03,WeatherDisplay:10.37,2013-01-15 01:02:00,
2013-01-14 20:08:00,36.8,26.9,30.21,NNE,13,7.9,11.5,67,0.00,CLR,,0.03,WeatherDisplay:10.37,2013-01-15 01:08:00,
2013-01-14 20:13:00,36.6,26.7,30.21,NE,38,3.5,4.6,67,0.00,CLR,,0.03,WeatherDisplay:10.37,2013-01-15 01:13:00,
2013-01-14 20:18:00,36.6,26.7,30.21,NE,41,5.4,8.1,67,0.00,CLR,,0.03,WeatherDisplay:10.37,2013-01-15 01:18:00,
2013-01-14 20:23:00,36.5,26.6,30.21,NE,46,5.2,10.4,67,0.00,CLR,,0.03,WeatherDisplay:10.37,2013-01-15 01:23:00,
2013-01-14 20:29:00,36.3,26.7,30.22,North,360,3.1,6.9,68,0.00,CLR,,0.03,WeatherDisplay:10.37,2013-01-15 01:29:00,
2013-01-14 20:34:00,36.3,26.4,30.21,NNE,12,4.2,6.9,67,0.00,CLR,,0.03,WeatherDisplay:10.37,2013-01-15 01:34:00,
2013-01-14 20:39:00,36.2,26.3,30.22,WNW,298,6.2,10.0,67,0.00,CLR,,0.03,WeatherDisplay:10.37,2013-01-15 01:39:00,
2013-01-14 20:44:00,36.2,26.3,30.22,NE,37,3.9,7.0,67,0.00,CLR,,0.03,WeatherDisplay:10.37,2013-01-15 01:44:00,
2013-01-14 20:50:00,36.2,26.3,30.22,NNW,342,6.5,6.5,67,0.00,CLR,,0.03,WeatherDisplay:10.37,2013-01-15 01:50:00,
2013-01-14 20:55:00,36.0,26.1,30.21,NNW,327,5.3,10.4,67,0.00,CLR,,0.03,WeatherDisplay:10.37,2013-01-15 01:55:00,
2013-01-14 21:00:00,36.0,26.1,30.22,North,5,3.9,6.9,67,0.00,CLR,,0.03,WeatherDisplay:10.37,2013-01-15 02:00:00,
2013-01-14 21:05:00,36.0,25.7,30.22,East,86,2.5,4.6,66,0.00,CLR,,0.03,WeatherDisplay:10.37,2013-01-15 02:05:00,
2013-01-14 21:10:00,36.0,26.1,30.21,NNE,30,4.8,8.0,67,0.00,CLR,,0.03,WeatherDisplay:10.37,2013-01-15 02:10:00,
2013-01-14 21:15:00,35.9,25.6,30.20,NE,46,7.3,12.7,66,0.00,CLR,,0.03,WeatherDisplay:10.37,2013-01-15 02:15:00,
2013-01-14 21:20:00,35.9,25.6,30.20,NNE,13,4.1,6.0,66,0.00,CLR,,0.03,WeatherDisplay:10.37,2013-01-15 02:20:00,
2013-01-14 21:26:00,35.8,25.5,30.20,NNE,32,5.2,10.4,66,0.00,CLR,,0.03,WeatherDisplay:10.37,2013-01-15 02:26:00,
2013-01-14 21:31:00,35.8,25.5,30.21,NNW,342,9.0,10.4,66,0.00,CLR,,0.03,WeatherDisplay:10.37,2013-01-15 02:31:00,
2013-01-14 21:36:00,35.8,25.5,30.23,NNW,337,2.5,3.5,66,0.00,CLR,,0.03,WeatherDisplay:10.37,2013-01-15 02:36:00,
2013-01-14 21:41:00,35.6,25.7,30.22,NE,54,6.0,10.4,67,0.00,CLR,,0.03,WeatherDisplay:10.37,2013-01-15 02:41:00,
2013-01-14 21:46:00,35.6,25.7,30.22,ENE,62,2.3,3.5,67,0.00,CLR,,0.03,WeatherDisplay:10.37,2013-01-15 02:46:00,
2013-01-14 21:52:00,35.6,25.7,30.22,ENE,66,3.3,5.8,67,0.00,CLR,,0.03,WeatherDisplay:10.37,2013-01-15 02:52:00,
2013-01-14 21:57:00,35.6,26.1,30.24,NNE,24,2.9,5.8,68,0.00,CLR,,0.03,WeatherDisplay:10.37,2013-01-15 02:57:00,
2013-01-14 22:02:00,35.6,25.7,30.24,NNE,26,1.1,5.8,67,0.00,CLR,,0.03,WeatherDisplay:10.37,2013-01-15 03:02:00,
2013-01-14 22:07:00,35.6,26.1,30.26,NNE,26,0.0,2.3,68,0.00,CLR,,0.03,WeatherDisplay:10.37,2013-01-15 03:07:00,
2013-01-14 22:12:00,35.6,26.1,30.26,NNE,26,0.5,2.0,68,0.00,CLR,,0.03,WeatherDisplay:10.37,2013-01-15 03:12:00,
2013-01-14 22:18:00,35.6,26.1,30.25,ENE,58,3.3,4.0,68,0.00,CLR,,0.03,WeatherDisplay:10.37,2013-01-15 03:18:00,
2013-01-14 22:23:00,35.5,26.0,30.24,NNE,32,3.7,5.8,68,0.00,CLR,,0.03,WeatherDisplay:10.37,2013-01-15 03:23:00,
2013-01-14 22:28:00,35.5,26.0,30.24,NE,35,2.8,4.6,68,0.00,CLR,,0.03,WeatherDisplay:10.37,2013-01-15 03:28:00,
2013-01-14 22:33:00,35.5,25.6,30.24,NE,40,4.7,10.4,67,0.00,CLR,,0.03,WeatherDisplay:10.37,2013-01-15 03:33:00,
2013-01-14 22:38:00,35.5,26.0,30.24,NNE,31,2.8,3.5,68,0.00,CLR,,0.03,WeatherDisplay:10.37,2013-01-15 03:38:00,
2013-01-14 22:43:00,35.3,25.8,30.23,NE,40,0.2,2.3,68,0.00,CLR,,0.03,WeatherDisplay:10.37,2013-01-15 03:43:00,
2013-01-14 22:48:00,35.3,25.8,30.24,NNW,336,2.4,5.8,68,0.00,CLR,,0.03,WeatherDisplay:10.37,2013-01-15 03:48:00,
2013-01-14 22:54:00,35.3,25.8,30.23,North,5,3.6,6.9,68,0.00,CLR,,0.03,WeatherDisplay:10.37,2013-01-15 03:54:00,
2013-01-14 22:59:00,35.2,25.3,30.22,NNE,17,0.6,4.0,67,0.00,CLR,,0.03,WeatherDisplay:10.37,2013-01-15 03:59:00,
2013-01-14 23:04:00,35.2,25.7,30.23,NW,322,1.5,4.6,68,0.00,CLR,,0.03,WeatherDisplay:10.37,2013-01-15 04:04:00,
2013-01-14 23:09:00,35.2,25.7,30.24,NNW,331,2.6,3.5,68,0.00,CLR,,0.03,WeatherDisplay:10.37,2013-01-15 04:09:00,
2013-01-14 23:14:00,35.2,25.7,30.24,East,79,4.0,5.8,68,0.00,CLR,,0.03,WeatherDisplay:10.37,2013-01-15 04:14:00,
2013-01-14 23:19:00,35.2,25.7,30.23,NE,42,7.2,11.5,68,0.00,CLR,,0.03,WeatherDisplay:10.37,2013-01-15 04:19:00,
2013-01-14 23:25:00,35.0,25.1,30.24,North,360,4.2,9.2,67,0.00,CLR,,0.03,WeatherDisplay:10.37,2013-01-15 04:25:00,
2013-01-14 23:30:00,35.0,25.1,30.24,NE,40,1.7,3.5,67,0.00,CLR,,0.03,WeatherDisplay:10.37,2013-01-15 04:30:00,
2013-01-14 23:35:00,35.0,25.5,30.23,ENE,62,4.0,5.0,68,0.00,CLR,,0.03,WeatherDisplay:10.37,2013-01-15 04:35:00,
2013-01-14 23:40:00,35.0,25.5,30.24,ENE,72,0.1,1.1,68,0.00,CLR,,0.03,WeatherDisplay:10.37,2013-01-15 04:40:00,
2013-01-14 23:45:00,35.0,25.5,30.24,NE,42,2.7,4.6,68,0.00,CLR,,0.03,WeatherDisplay:10.37,2013-01-15 04:45:00,
2013-01-14 23:51:00,35.0,25.5,30.23,NE,53,2.3,6.0,68,0.00,CLR,,0.03,WeatherDisplay:10.37,2013-01-15 04:51:00,
2013-01-14 23:56:00,34.9,25.4,30.23,North,360,4.0,6.9,68,0.00,CLR,,0.03,WeatherDisplay:10.37,2013-01-15 04:56:00,